sensor_id;sensor_type;location;lat;lon;timestamp;temperature;humidity
31967;DHT22;18496;52.042;6.812;2023-08-08T00:00:07;17.40;99.90
31967;DHT22;18496;52.042;6.812;2023-08-08T00:02:12;17.40;99.90
31967;DHT22;18496;52.042;6.812;2023-08-08T00:04:15;17.40;99.90
31967;DHT22;18496;52.042;6.812;2023-08-08T00:06:19;17.40;99.90
31967;DHT22;18496;52.042;6.812;2023-08-08T00:08:23;17.40;99.90
31967;DHT22;18496;52.042;6.812;2023-08-08T00:10:26;17.40;99.90
31967;DHT22;18496;52.042;6.812;2023-08-08T00:12:30;17.40;99.90
31967;DHT22;18496;52.042;6.812;2023-08-08T00:14:34;17.30;99.90
31967;DHT22;18496;52.042;6.812;2023-08-08T00:16:37;17.30;99.90
31967;DHT22;18496;52.042;6.812;2023-08-08T00:18:41;17.20;99.90
31967;DHT22;18496;52.042;6.812;2023-08-08T00:20:44;17.20;99.90
31967;DHT22;18496;52.042;6.812;2023-08-08T00:22:48;17.10;99.90
31967;DHT22;18496;52.042;6.812;2023-08-08T00:24:52;16.90;99.90
31967;DHT22;18496;52.042;6.812;2023-08-08T00:26:55;16.80;99.90
31967;DHT22;18496;52.042;6.812;2023-08-08T00:28:59;16.70;99.90
31967;DHT22;18496;52.042;6.812;2023-08-08T00:31:03;16.70;99.90
31967;DHT22;18496;52.042;6.812;2023-08-08T00:33:06;16.70;99.90
31967;DHT22;18496;52.042;6.812;2023-08-08T00:35:10;16.60;99.90
31967;DHT22;18496;52.042;6.812;2023-08-08T00:37:14;16.60;99.90
31967;DHT22;18496;52.042;6.812;2023-08-08T00:39:17;16.60;99.90
31967;DHT22;18496;52.042;6.812;2023-08-08T00:41:21;16.60;99.90
31967;DHT22;18496;52.042;6.812;2023-08-08T00:43:26;16.60;99.90
31967;DHT22;18496;52.042;6.812;2023-08-08T00:45:30;16.60;99.90
31967;DHT22;18496;52.042;6.812;2023-08-08T00:47:34;16.50;99.90
31967;DHT22;18496;52.042;6.812;2023-08-08T00:49:39;16.60;99.90
31967;DHT22;18496;52.042;6.812;2023-08-08T00:51:42;16.60;99.90
31967;DHT22;18496;52.042;6.812;2023-08-08T00:53:48;16.60;99.90
31967;DHT22;18496;52.042;6.812;2023-08-08T00:55:54;16.60;99.90
31967;DHT22;18496;52.042;6.812;2023-08-08T00:57:58;16.60;99.90
31967;DHT22;18496;52.042;6.812;2023-08-08T01:00:02;16.70;99.90
31967;DHT22;18496;52.042;6.812;2023-08-08T01:02:07;16.70;99.90
31967;DHT22;18496;52.042;6.812;2023-08-08T01:04:11;16.70;99.90
31967;DHT22;18496;52.042;6.812;2023-08-08T01:08:48;16.80;99.90
31967;DHT22;18496;52.042;6.812;2023-08-08T01:10:54;16.80;99.90
31967;DHT22;18496;52.042;6.812;2023-08-08T01:13:02;16.80;99.90
31967;DHT22;18496;52.042;6.812;2023-08-08T01:15:08;16.80;99.90
31967;DHT22;18496;52.042;6.812;2023-08-08T01:17:13;16.80;99.90
31967;DHT22;18496;52.042;6.812;2023-08-08T01:19:27;16.70;99.90
31967;DHT22;18496;52.042;6.812;2023-08-08T01:21:33;16.70;99.90
31967;DHT22;18496;52.042;6.812;2023-08-08T01:23:51;16.70;99.90
31967;DHT22;18496;52.042;6.812;2023-08-08T01:25:57;16.70;99.90
31967;DHT22;18496;52.042;6.812;2023-08-08T01:28:03;16.70;99.90
31967;DHT22;18496;52.042;6.812;2023-08-08T01:30:08;16.70;99.90
31967;DHT22;18496;52.042;6.812;2023-08-08T01:32:12;16.70;99.90
31967;DHT22;18496;52.042;6.812;2023-08-08T01:34:16;16.70;99.90
31967;DHT22;18496;52.042;6.812;2023-08-08T01:36:29;16.70;99.90
31967;DHT22;18496;52.042;6.812;2023-08-08T01:38:37;16.70;99.90
31967;DHT22;18496;52.042;6.812;2023-08-08T01:40:43;16.70;99.90
31967;DHT22;18496;52.042;6.812;2023-08-08T01:42:49;16.70;99.90
31967;DHT22;18496;52.042;6.812;2023-08-08T01:44:53;16.70;99.90
31967;DHT22;18496;52.042;6.812;2023-08-08T01:46:59;16.70;99.90
31967;DHT22;18496;52.042;6.812;2023-08-08T01:49:02;16.70;99.90
31967;DHT22;18496;52.042;6.812;2023-08-08T01:51:06;16.70;99.90
31967;DHT22;18496;52.042;6.812;2023-08-08T01:53:12;16.60;99.90
31967;DHT22;18496;52.042;6.812;2023-08-08T01:55:19;16.60;99.90
31967;DHT22;18496;52.042;6.812;2023-08-08T01:57:23;16.60;99.90
31967;DHT22;18496;52.042;6.812;2023-08-08T01:59:27;16.60;99.90
31967;DHT22;18496;52.042;6.812;2023-08-08T02:01:30;16.50;99.90
31967;DHT22;18496;52.042;6.812;2023-08-08T02:03:34;16.50;99.90
31967;DHT22;18496;52.042;6.812;2023-08-08T02:05:38;16.50;99.90
31967;DHT22;18496;52.042;6.812;2023-08-08T02:07:41;16.50;99.90
31967;DHT22;18496;52.042;6.812;2023-08-08T02:09:45;16.50;99.90
31967;DHT22;18496;52.042;6.812;2023-08-08T02:11:49;16.50;99.90
31967;DHT22;18496;52.042;6.812;2023-08-08T02:13:53;16.50;99.90
31967;DHT22;18496;52.042;6.812;2023-08-08T02:15:56;16.50;99.90
31967;DHT22;18496;52.042;6.812;2023-08-08T02:18:00;16.50;99.90
31967;DHT22;18496;52.042;6.812;2023-08-08T02:20:06;16.40;99.90
31967;DHT22;18496;52.042;6.812;2023-08-08T02:22:10;16.50;99.90
31967;DHT22;18496;52.042;6.812;2023-08-08T02:24:13;16.40;99.90
31967;DHT22;18496;52.042;6.812;2023-08-08T02:26:17;16.50;99.90
31967;DHT22;18496;52.042;6.812;2023-08-08T02:28:21;16.60;99.90
31967;DHT22;18496;52.042;6.812;2023-08-08T02:30:24;16.60;99.90
31967;DHT22;18496;52.042;6.812;2023-08-08T02:32:28;16.60;99.90
31967;DHT22;18496;52.042;6.812;2023-08-08T02:34:32;16.60;99.90
31967;DHT22;18496;52.042;6.812;2023-08-08T02:36:35;16.60;99.90
31967;DHT22;18496;52.042;6.812;2023-08-08T02:38:39;16.60;99.90
31967;DHT22;18496;52.042;6.812;2023-08-08T02:40:43;16.60;99.90
31967;DHT22;18496;52.042;6.812;2023-08-08T02:42:47;16.60;99.90
31967;DHT22;18496;52.042;6.812;2023-08-08T02:44:51;16.60;99.90
31967;DHT22;18496;52.042;6.812;2023-08-08T02:46:54;16.50;99.90
31967;DHT22;18496;52.042;6.812;2023-08-08T02:48:58;16.50;99.90
31967;DHT22;18496;52.042;6.812;2023-08-08T02:51:02;16.50;99.90
31967;DHT22;18496;52.042;6.812;2023-08-08T02:53:05;16.40;99.90
31967;DHT22;18496;52.042;6.812;2023-08-08T02:55:15;16.40;99.90
31967;DHT22;18496;52.042;6.812;2023-08-08T02:57:21;16.40;99.90
31967;DHT22;18496;52.042;6.812;2023-08-08T02:59:25;16.40;99.90
31967;DHT22;18496;52.042;6.812;2023-08-08T03:01:30;16.30;99.90
31967;DHT22;18496;52.042;6.812;2023-08-08T03:03:35;16.30;99.90
31967;DHT22;18496;52.042;6.812;2023-08-08T03:05:39;16.30;99.90
31967;DHT22;18496;52.042;6.812;2023-08-08T03:07:42;16.30;99.90
31967;DHT22;18496;52.042;6.812;2023-08-08T03:09:46;16.30;99.90
31967;DHT22;18496;52.042;6.812;2023-08-08T03:11:50;16.30;99.90
31967;DHT22;18496;52.042;6.812;2023-08-08T03:13:54;16.30;99.90
31967;DHT22;18496;52.042;6.812;2023-08-08T03:15:58;16.30;99.90
31967;DHT22;18496;52.042;6.812;2023-08-08T03:18:02;16.30;99.90
31967;DHT22;18496;52.042;6.812;2023-08-08T03:20:06;16.30;99.90
31967;DHT22;18496;52.042;6.812;2023-08-08T03:22:10;16.30;99.90
31967;DHT22;18496;52.042;6.812;2023-08-08T03:24:15;16.30;99.90
31967;DHT22;18496;52.042;6.812;2023-08-08T03:26:19;16.30;99.90
31967;DHT22;18496;52.042;6.812;2023-08-08T03:28:23;16.40;99.90
31967;DHT22;18496;52.042;6.812;2023-08-08T03:30:29;16.30;99.90
31967;DHT22;18496;52.042;6.812;2023-08-08T03:32:33;16.30;99.90
31967;DHT22;18496;52.042;6.812;2023-08-08T03:34:36;16.30;99.90
31967;DHT22;18496;52.042;6.812;2023-08-08T03:36:42;16.40;99.90
31967;DHT22;18496;52.042;6.812;2023-08-08T03:38:47;16.40;99.90
31967;DHT22;18496;52.042;6.812;2023-08-08T03:40:51;16.30;99.90
31967;DHT22;18496;52.042;6.812;2023-08-08T03:42:55;16.30;99.90
31967;DHT22;18496;52.042;6.812;2023-08-08T03:44:58;16.30;99.90
31967;DHT22;18496;52.042;6.812;2023-08-08T03:47:02;16.30;99.90
31967;DHT22;18496;52.042;6.812;2023-08-08T03:49:06;16.30;99.90
31967;DHT22;18496;52.042;6.812;2023-08-08T03:51:10;16.30;99.90
31967;DHT22;18496;52.042;6.812;2023-08-08T03:53:15;16.30;99.90
31967;DHT22;18496;52.042;6.812;2023-08-08T03:55:18;16.30;99.90
31967;DHT22;18496;52.042;6.812;2023-08-08T03:57:22;16.30;99.90
31967;DHT22;18496;52.042;6.812;2023-08-08T03:59:26;16.30;99.90
31967;DHT22;18496;52.042;6.812;2023-08-08T04:01:30;16.20;99.90
31967;DHT22;18496;52.042;6.812;2023-08-08T04:03:33;16.20;99.90
31967;DHT22;18496;52.042;6.812;2023-08-08T04:05:37;16.20;99.90
31967;DHT22;18496;52.042;6.812;2023-08-08T04:07:41;16.10;99.90
31967;DHT22;18496;52.042;6.812;2023-08-08T04:09:45;16.10;99.90
31967;DHT22;18496;52.042;6.812;2023-08-08T04:11:48;16.20;99.90
31967;DHT22;18496;52.042;6.812;2023-08-08T04:13:52;16.20;99.90
31967;DHT22;18496;52.042;6.812;2023-08-08T04:15:56;16.20;99.90
31967;DHT22;18496;52.042;6.812;2023-08-08T04:17:59;16.10;99.90
31967;DHT22;18496;52.042;6.812;2023-08-08T04:20:04;16.10;99.90
31967;DHT22;18496;52.042;6.812;2023-08-08T04:22:09;16.00;99.90
31967;DHT22;18496;52.042;6.812;2023-08-08T04:24:13;15.90;99.90
31967;DHT22;18496;52.042;6.812;2023-08-08T04:26:17;16.00;99.90
31967;DHT22;18496;52.042;6.812;2023-08-08T04:28:21;16.00;99.90
31967;DHT22;18496;52.042;6.812;2023-08-08T04:30:25;16.00;99.90
31967;DHT22;18496;52.042;6.812;2023-08-08T04:32:29;16.00;99.90
31967;DHT22;18496;52.042;6.812;2023-08-08T04:34:33;16.00;99.90
31967;DHT22;18496;52.042;6.812;2023-08-08T04:36:36;16.00;99.90
31967;DHT22;18496;52.042;6.812;2023-08-08T04:38:40;16.00;99.90
31967;DHT22;18496;52.042;6.812;2023-08-08T04:40:44;15.90;99.90
31967;DHT22;18496;52.042;6.812;2023-08-08T04:42:47;15.90;99.90
31967;DHT22;18496;52.042;6.812;2023-08-08T04:44:51;15.90;99.90
31967;DHT22;18496;52.042;6.812;2023-08-08T04:46:55;15.90;99.90
31967;DHT22;18496;52.042;6.812;2023-08-08T04:48:59;15.90;99.90
31967;DHT22;18496;52.042;6.812;2023-08-08T04:51:04;15.90;99.90
31967;DHT22;18496;52.042;6.812;2023-08-08T04:53:08;15.90;99.90
31967;DHT22;18496;52.042;6.812;2023-08-08T04:55:12;15.90;99.90
31967;DHT22;18496;52.042;6.812;2023-08-08T04:57:15;15.90;99.90
31967;DHT22;18496;52.042;6.812;2023-08-08T04:59:19;15.90;99.90
31967;DHT22;18496;52.042;6.812;2023-08-08T05:01:23;15.90;99.90
31967;DHT22;18496;52.042;6.812;2023-08-08T05:03:26;15.90;99.90
31967;DHT22;18496;52.042;6.812;2023-08-08T05:05:30;15.90;99.90
31967;DHT22;18496;52.042;6.812;2023-08-08T05:07:33;15.80;99.90
31967;DHT22;18496;52.042;6.812;2023-08-08T05:09:39;15.90;99.90
31967;DHT22;18496;52.042;6.812;2023-08-08T05:11:43;15.90;99.90
31967;DHT22;18496;52.042;6.812;2023-08-08T05:13:47;15.90;99.90
31967;DHT22;18496;52.042;6.812;2023-08-08T05:15:51;15.90;99.90
31967;DHT22;18496;52.042;6.812;2023-08-08T05:17:54;15.90;99.90
31967;DHT22;18496;52.042;6.812;2023-08-08T05:19:58;15.90;99.90
31967;DHT22;18496;52.042;6.812;2023-08-08T05:22:02;16.00;99.90
31967;DHT22;18496;52.042;6.812;2023-08-08T05:24:06;16.00;99.90
31967;DHT22;18496;52.042;6.812;2023-08-08T05:26:09;16.00;99.90
31967;DHT22;18496;52.042;6.812;2023-08-08T05:28:13;16.00;99.90
31967;DHT22;18496;52.042;6.812;2023-08-08T05:30:17;16.00;99.90
31967;DHT22;18496;52.042;6.812;2023-08-08T05:32:20;16.00;99.90
31967;DHT22;18496;52.042;6.812;2023-08-08T05:34:24;16.10;99.90
31967;DHT22;18496;52.042;6.812;2023-08-08T05:36:28;16.10;99.90
31967;DHT22;18496;52.042;6.812;2023-08-08T05:38:31;16.00;99.90
31967;DHT22;18496;52.042;6.812;2023-08-08T05:40:35;16.00;99.90
31967;DHT22;18496;52.042;6.812;2023-08-08T05:42:39;16.00;99.90
31967;DHT22;18496;52.042;6.812;2023-08-08T05:44:43;16.00;99.90
31967;DHT22;18496;52.042;6.812;2023-08-08T05:46:47;16.00;99.90
31967;DHT22;18496;52.042;6.812;2023-08-08T05:48:51;16.00;99.90
31967;DHT22;18496;52.042;6.812;2023-08-08T05:50:54;16.00;99.90
31967;DHT22;18496;52.042;6.812;2023-08-08T05:53:01;16.00;99.90
31967;DHT22;18496;52.042;6.812;2023-08-08T05:55:05;16.00;99.90
31967;DHT22;18496;52.042;6.812;2023-08-08T05:57:09;16.00;99.90
31967;DHT22;18496;52.042;6.812;2023-08-08T05:59:13;16.00;99.90
31967;DHT22;18496;52.042;6.812;2023-08-08T06:01:16;16.00;99.90
31967;DHT22;18496;52.042;6.812;2023-08-08T06:03:20;16.00;99.90
31967;DHT22;18496;52.042;6.812;2023-08-08T06:05:24;16.00;99.90
31967;DHT22;18496;52.042;6.812;2023-08-08T06:07:28;16.00;99.90
31967;DHT22;18496;52.042;6.812;2023-08-08T06:09:31;16.00;99.90
31967;DHT22;18496;52.042;6.812;2023-08-08T06:11:35;16.00;99.90
31967;DHT22;18496;52.042;6.812;2023-08-08T06:13:39;16.00;99.90
31967;DHT22;18496;52.042;6.812;2023-08-08T06:15:43;16.00;99.90
31967;DHT22;18496;52.042;6.812;2023-08-08T06:17:46;16.00;99.90
31967;DHT22;18496;52.042;6.812;2023-08-08T06:19:50;16.00;99.90
31967;DHT22;18496;52.042;6.812;2023-08-08T06:21:54;16.00;99.90
31967;DHT22;18496;52.042;6.812;2023-08-08T06:23:57;16.10;99.90
31967;DHT22;18496;52.042;6.812;2023-08-08T06:26:01;16.10;99.90
31967;DHT22;18496;52.042;6.812;2023-08-08T06:28:05;16.10;99.90
31967;DHT22;18496;52.042;6.812;2023-08-08T06:30:10;16.20;99.90
31967;DHT22;18496;52.042;6.812;2023-08-08T06:32:14;16.20;99.90
31967;DHT22;18496;52.042;6.812;2023-08-08T06:34:17;16.20;99.90
31967;DHT22;18496;52.042;6.812;2023-08-08T06:36:21;16.20;99.90
31967;DHT22;18496;52.042;6.812;2023-08-08T06:38:24;16.20;99.90
31967;DHT22;18496;52.042;6.812;2023-08-08T06:40:28;16.30;99.90
31967;DHT22;18496;52.042;6.812;2023-08-08T06:42:32;16.30;99.90
31967;DHT22;18496;52.042;6.812;2023-08-08T06:44:44;16.30;99.90
31967;DHT22;18496;52.042;6.812;2023-08-08T06:46:48;16.30;99.90
31967;DHT22;18496;52.042;6.812;2023-08-08T06:48:52;16.40;99.90
31967;DHT22;18496;52.042;6.812;2023-08-08T06:50:59;16.40;99.90
31967;DHT22;18496;52.042;6.812;2023-08-08T06:53:03;16.40;99.90
31967;DHT22;18496;52.042;6.812;2023-08-08T06:55:07;16.40;99.90
31967;DHT22;18496;52.042;6.812;2023-08-08T06:57:11;16.40;99.90
31967;DHT22;18496;52.042;6.812;2023-08-08T06:59:15;16.40;99.90
31967;DHT22;18496;52.042;6.812;2023-08-08T07:01:19;16.40;99.90
31967;DHT22;18496;52.042;6.812;2023-08-08T07:03:22;16.40;99.90
31967;DHT22;18496;52.042;6.812;2023-08-08T07:05:26;16.50;99.90
31967;DHT22;18496;52.042;6.812;2023-08-08T07:07:30;16.50;99.90
31967;DHT22;18496;52.042;6.812;2023-08-08T07:09:36;16.60;99.90
31967;DHT22;18496;52.042;6.812;2023-08-08T07:11:40;16.60;99.90
31967;DHT22;18496;52.042;6.812;2023-08-08T07:13:44;16.60;99.90
31967;DHT22;18496;52.042;6.812;2023-08-08T07:15:48;16.70;99.90
31967;DHT22;18496;52.042;6.812;2023-08-08T07:17:51;16.70;99.90
31967;DHT22;18496;52.042;6.812;2023-08-08T07:19:55;16.80;99.90
31967;DHT22;18496;52.042;6.812;2023-08-08T07:22:00;16.80;99.90
31967;DHT22;18496;52.042;6.812;2023-08-08T07:24:04;16.80;99.90
31967;DHT22;18496;52.042;6.812;2023-08-08T07:26:07;16.80;99.90
31967;DHT22;18496;52.042;6.812;2023-08-08T07:28:11;16.90;99.90
31967;DHT22;18496;52.042;6.812;2023-08-08T07:30:14;16.90;99.90
31967;DHT22;18496;52.042;6.812;2023-08-08T07:32:19;16.90;99.90
31967;DHT22;18496;52.042;6.812;2023-08-08T07:34:22;16.90;99.90
31967;DHT22;18496;52.042;6.812;2023-08-08T07:36:26;16.90;99.90
31967;DHT22;18496;52.042;6.812;2023-08-08T07:38:30;17.00;99.90
31967;DHT22;18496;52.042;6.812;2023-08-08T07:40:34;17.00;99.90
31967;DHT22;18496;52.042;6.812;2023-08-08T07:42:38;17.10;99.90
31967;DHT22;18496;52.042;6.812;2023-08-08T07:44:41;17.10;99.90
31967;DHT22;18496;52.042;6.812;2023-08-08T07:46:45;17.20;99.90
31967;DHT22;18496;52.042;6.812;2023-08-08T07:48:49;17.20;99.90
31967;DHT22;18496;52.042;6.812;2023-08-08T07:50:52;17.20;99.90
31967;DHT22;18496;52.042;6.812;2023-08-08T07:52:56;17.20;99.90
31967;DHT22;18496;52.042;6.812;2023-08-08T07:54:59;17.30;99.90
31967;DHT22;18496;52.042;6.812;2023-08-08T07:57:03;17.40;99.90
31967;DHT22;18496;52.042;6.812;2023-08-08T07:59:07;17.40;99.90
31967;DHT22;18496;52.042;6.812;2023-08-08T08:01:11;17.40;99.90
31967;DHT22;18496;52.042;6.812;2023-08-08T08:03:17;17.40;99.90
31967;DHT22;18496;52.042;6.812;2023-08-08T08:05:20;17.50;99.90
31967;DHT22;18496;52.042;6.812;2023-08-08T08:07:24;17.50;99.90
31967;DHT22;18496;52.042;6.812;2023-08-08T08:09:28;17.50;99.90
31967;DHT22;18496;52.042;6.812;2023-08-08T08:11:32;17.60;99.90
31967;DHT22;18496;52.042;6.812;2023-08-08T08:13:35;17.60;99.90
31967;DHT22;18496;52.042;6.812;2023-08-08T08:15:39;17.70;99.90
31967;DHT22;18496;52.042;6.812;2023-08-08T08:17:43;17.70;99.90
31967;DHT22;18496;52.042;6.812;2023-08-08T08:19:46;17.70;99.90
31967;DHT22;18496;52.042;6.812;2023-08-08T08:21:50;17.70;99.90
31967;DHT22;18496;52.042;6.812;2023-08-08T08:23:54;17.70;99.90
31967;DHT22;18496;52.042;6.812;2023-08-08T08:25:58;17.70;99.90
31967;DHT22;18496;52.042;6.812;2023-08-08T08:28:02;17.80;99.90
31967;DHT22;18496;52.042;6.812;2023-08-08T08:30:06;17.90;99.90
31967;DHT22;18496;52.042;6.812;2023-08-08T08:32:12;17.90;99.90
31967;DHT22;18496;52.042;6.812;2023-08-08T08:34:16;17.90;99.90
31967;DHT22;18496;52.042;6.812;2023-08-08T08:36:20;17.90;99.90
31967;DHT22;18496;52.042;6.812;2023-08-08T08:38:24;18.00;99.90
31967;DHT22;18496;52.042;6.812;2023-08-08T08:40:30;18.00;99.90
31967;DHT22;18496;52.042;6.812;2023-08-08T08:42:38;18.10;99.90
31967;DHT22;18496;52.042;6.812;2023-08-08T08:44:43;18.10;99.90
31967;DHT22;18496;52.042;6.812;2023-08-08T08:46:48;18.10;99.90
31967;DHT22;18496;52.042;6.812;2023-08-08T08:48:54;18.20;99.90
31967;DHT22;18496;52.042;6.812;2023-08-08T08:50:59;18.20;99.90
31967;DHT22;18496;52.042;6.812;2023-08-08T08:53:03;18.30;99.90
31967;DHT22;18496;52.042;6.812;2023-08-08T08:55:08;18.30;99.90
31967;DHT22;18496;52.042;6.812;2023-08-08T08:57:12;18.30;99.90
31967;DHT22;18496;52.042;6.812;2023-08-08T08:59:16;18.30;99.90
31967;DHT22;18496;52.042;6.812;2023-08-08T09:01:21;18.30;99.90
31967;DHT22;18496;52.042;6.812;2023-08-08T09:03:27;18.40;99.90
31967;DHT22;18496;52.042;6.812;2023-08-08T09:05:31;18.50;99.90
31967;DHT22;18496;52.042;6.812;2023-08-08T09:07:36;18.60;99.90
31967;DHT22;18496;52.042;6.812;2023-08-08T09:09:43;18.60;99.90
31967;DHT22;18496;52.042;6.812;2023-08-08T09:11:51;18.60;99.90
31967;DHT22;18496;52.042;6.812;2023-08-08T09:13:55;18.60;99.90
31967;DHT22;18496;52.042;6.812;2023-08-08T09:15:59;18.70;99.90
31967;DHT22;18496;52.042;6.812;2023-08-08T09:18:04;18.70;99.90
31967;DHT22;18496;52.042;6.812;2023-08-08T09:20:08;18.80;99.90
31967;DHT22;18496;52.042;6.812;2023-08-08T09:22:14;18.90;99.90
31967;DHT22;18496;52.042;6.812;2023-08-08T09:24:18;18.90;99.90
31967;DHT22;18496;52.042;6.812;2023-08-08T09:26:22;19.00;99.90
31967;DHT22;18496;52.042;6.812;2023-08-08T09:28:26;19.00;99.90
31967;DHT22;18496;52.042;6.812;2023-08-08T09:30:30;19.00;99.90
31967;DHT22;18496;52.042;6.812;2023-08-08T09:32:34;19.00;99.90
31967;DHT22;18496;52.042;6.812;2023-08-08T09:34:40;19.10;99.90
31967;DHT22;18496;52.042;6.812;2023-08-08T09:36:44;19.10;99.90
31967;DHT22;18496;52.042;6.812;2023-08-08T09:38:48;19.10;99.90
31967;DHT22;18496;52.042;6.812;2023-08-08T09:40:51;19.20;99.90
31967;DHT22;18496;52.042;6.812;2023-08-08T09:42:56;19.20;99.90
31967;DHT22;18496;52.042;6.812;2023-08-08T09:45:00;19.30;99.90
31967;DHT22;18496;52.042;6.812;2023-08-08T09:47:04;19.30;99.90
31967;DHT22;18496;52.042;6.812;2023-08-08T09:49:10;19.30;99.90
31967;DHT22;18496;52.042;6.812;2023-08-08T09:51:14;19.30;99.90
31967;DHT22;18496;52.042;6.812;2023-08-08T09:53:18;19.30;99.90
31967;DHT22;18496;52.042;6.812;2023-08-08T09:55:23;19.30;99.90
31967;DHT22;18496;52.042;6.812;2023-08-08T09:57:27;19.40;99.90
31967;DHT22;18496;52.042;6.812;2023-08-08T09:59:31;19.40;99.90
31967;DHT22;18496;52.042;6.812;2023-08-08T10:01:35;19.50;99.90
31967;DHT22;18496;52.042;6.812;2023-08-08T10:03:40;19.50;99.90
31967;DHT22;18496;52.042;6.812;2023-08-08T10:05:46;19.40;99.90
31967;DHT22;18496;52.042;6.812;2023-08-08T10:07:53;19.30;99.90
31967;DHT22;18496;52.042;6.812;2023-08-08T10:09:59;19.30;99.90
31967;DHT22;18496;52.042;6.812;2023-08-08T10:12:09;19.30;99.90
31967;DHT22;18496;52.042;6.812;2023-08-08T10:14:14;19.30;99.90
31967;DHT22;18496;52.042;6.812;2023-08-08T10:16:19;19.40;99.90
31967;DHT22;18496;52.042;6.812;2023-08-08T10:18:23;19.50;99.90
31967;DHT22;18496;52.042;6.812;2023-08-08T10:20:27;19.50;99.90
31967;DHT22;18496;52.042;6.812;2023-08-08T10:22:31;19.50;99.90
31967;DHT22;18496;52.042;6.812;2023-08-08T10:24:35;19.60;99.90
31967;DHT22;18496;52.042;6.812;2023-08-08T10:27:14;19.70;99.90
31967;DHT22;18496;52.042;6.812;2023-08-08T10:29:19;19.80;99.90
31967;DHT22;18496;52.042;6.812;2023-08-08T10:31:24;19.80;99.90
31967;DHT22;18496;52.042;6.812;2023-08-08T10:33:39;19.70;99.90
31967;DHT22;18496;52.042;6.812;2023-08-08T10:36:01;19.80;99.90
31967;DHT22;18496;52.042;6.812;2023-08-08T10:38:08;19.90;99.90
31967;DHT22;18496;52.042;6.812;2023-08-08T10:40:17;19.90;99.90
31967;DHT22;18496;52.042;6.812;2023-08-08T10:42:23;20.00;99.90
31967;DHT22;18496;52.042;6.812;2023-08-08T10:44:27;20.00;99.90
31967;DHT22;18496;52.042;6.812;2023-08-08T10:46:32;20.00;99.90
31967;DHT22;18496;52.042;6.812;2023-08-08T10:48:37;20.10;99.90
31967;DHT22;18496;52.042;6.812;2023-08-08T10:50:54;20.20;99.90
31967;DHT22;18496;52.042;6.812;2023-08-08T10:52:59;20.20;99.90
31967;DHT22;18496;52.042;6.812;2023-08-08T10:55:05;20.10;99.50
31967;DHT22;18496;52.042;6.812;2023-08-08T10:57:15;20.10;99.50
31967;DHT22;18496;52.042;6.812;2023-08-08T11:01:28;20.20;99.90
31967;DHT22;18496;52.042;6.812;2023-08-08T11:03:32;20.20;99.60
31967;DHT22;18496;52.042;6.812;2023-08-08T11:05:37;20.30;99.50
31967;DHT22;18496;52.042;6.812;2023-08-08T11:07:41;20.30;99.90
31967;DHT22;18496;52.042;6.812;2023-08-08T11:09:45;20.40;99.60
31967;DHT22;18496;52.042;6.812;2023-08-08T11:11:49;20.50;99.30
31967;DHT22;18496;52.042;6.812;2023-08-08T11:13:53;20.60;99.10
31967;DHT22;18496;52.042;6.812;2023-08-08T11:15:57;20.70;98.20
31967;DHT22;18496;52.042;6.812;2023-08-08T11:18:02;20.70;98.80
31967;DHT22;18496;52.042;6.812;2023-08-08T11:20:06;20.80;99.60
31967;DHT22;18496;52.042;6.812;2023-08-08T11:22:10;20.90;99.40
31967;DHT22;18496;52.042;6.812;2023-08-08T11:24:15;20.90;99.20
31967;DHT22;18496;52.042;6.812;2023-08-08T11:26:19;20.90;98.90
31967;DHT22;18496;52.042;6.812;2023-08-08T11:28:22;21.00;98.80
31967;DHT22;18496;52.042;6.812;2023-08-08T11:30:34;21.00;98.40
31967;DHT22;18496;52.042;6.812;2023-08-08T11:32:38;21.00;98.30
31967;DHT22;18496;52.042;6.812;2023-08-08T11:34:42;21.00;98.50
31967;DHT22;18496;52.042;6.812;2023-08-08T11:36:46;21.00;98.50
31967;DHT22;18496;52.042;6.812;2023-08-08T11:38:50;20.90;98.30
31967;DHT22;18496;52.042;6.812;2023-08-08T11:40:54;20.80;98.10
31967;DHT22;18496;52.042;6.812;2023-08-08T11:42:59;20.80;98.00
31967;DHT22;18496;52.042;6.812;2023-08-08T11:45:03;20.70;98.40
31967;DHT22;18496;52.042;6.812;2023-08-08T11:47:08;20.80;98.50
31967;DHT22;18496;52.042;6.812;2023-08-08T11:49:14;20.80;98.80
31967;DHT22;18496;52.042;6.812;2023-08-08T11:51:18;20.90;98.90
31967;DHT22;18496;52.042;6.812;2023-08-08T11:53:23;21.00;98.10
31967;DHT22;18496;52.042;6.812;2023-08-08T11:55:27;21.10;97.90
31967;DHT22;18496;52.042;6.812;2023-08-08T11:57:33;21.00;97.20
31967;DHT22;18496;52.042;6.812;2023-08-08T11:59:36;21.00;97.30
31967;DHT22;18496;52.042;6.812;2023-08-08T12:01:41;20.90;97.60
31967;DHT22;18496;52.042;6.812;2023-08-08T12:03:46;20.90;98.20
31967;DHT22;18496;52.042;6.812;2023-08-08T12:05:49;20.90;97.60
31967;DHT22;18496;52.042;6.812;2023-08-08T12:07:53;21.00;97.50
31967;DHT22;18496;52.042;6.812;2023-08-08T12:09:57;21.00;97.00
31967;DHT22;18496;52.042;6.812;2023-08-08T12:12:01;20.90;97.40
31967;DHT22;18496;52.042;6.812;2023-08-08T12:14:07;20.90;97.10
31967;DHT22;18496;52.042;6.812;2023-08-08T12:16:13;20.90;97.00
31967;DHT22;18496;52.042;6.812;2023-08-08T12:18:18;21.00;97.60
31967;DHT22;18496;52.042;6.812;2023-08-08T12:20:21;21.10;97.70
31967;DHT22;18496;52.042;6.812;2023-08-08T12:22:25;21.20;97.00
31967;DHT22;18496;52.042;6.812;2023-08-08T12:24:29;21.30;96.90
31967;DHT22;18496;52.042;6.812;2023-08-08T12:26:33;21.30;96.30
31967;DHT22;18496;52.042;6.812;2023-08-08T12:28:36;21.40;97.20
31967;DHT22;18496;52.042;6.812;2023-08-08T12:30:41;21.40;97.10
31967;DHT22;18496;52.042;6.812;2023-08-08T12:32:45;21.40;96.40
31967;DHT22;18496;52.042;6.812;2023-08-08T12:34:49;21.50;96.70
31967;DHT22;18496;52.042;6.812;2023-08-08T12:36:53;21.50;95.50
31967;DHT22;18496;52.042;6.812;2023-08-08T12:38:57;21.60;95.30
31967;DHT22;18496;52.042;6.812;2023-08-08T12:41:01;21.60;94.70
31967;DHT22;18496;52.042;6.812;2023-08-08T12:43:05;21.60;94.80
31967;DHT22;18496;52.042;6.812;2023-08-08T12:45:10;21.60;95.00
31967;DHT22;18496;52.042;6.812;2023-08-08T12:47:14;21.60;95.60
31967;DHT22;18496;52.042;6.812;2023-08-08T12:49:17;21.70;95.60
31967;DHT22;18496;52.042;6.812;2023-08-08T12:51:21;21.80;94.90
31967;DHT22;18496;52.042;6.812;2023-08-08T12:53:25;21.80;95.00
31967;DHT22;18496;52.042;6.812;2023-08-08T12:55:29;21.90;94.80
31967;DHT22;18496;52.042;6.812;2023-08-08T12:57:33;21.90;95.00
31967;DHT22;18496;52.042;6.812;2023-08-08T12:59:37;21.90;94.90
31967;DHT22;18496;52.042;6.812;2023-08-08T13:01:40;21.90;94.70
31967;DHT22;18496;52.042;6.812;2023-08-08T13:03:44;21.90;95.10
31967;DHT22;18496;52.042;6.812;2023-08-08T13:05:48;21.90;94.80
31967;DHT22;18496;52.042;6.812;2023-08-08T13:07:51;21.90;94.40
31967;DHT22;18496;52.042;6.812;2023-08-08T13:09:55;21.80;93.70